.
WxDataArchive / Data Records for 2010-06-07
2010-06-06 June 2010 2010-06-08

Data Records for Monday, 07 June 2010

Time	Temp	Chill	HIndex	Humid	Dewpt	 Wind 	HiWind	WindDir	Rain 	Barom 
-----	----	-----	------	-----	-----	------	------	-------	-----	----- 
00:00	60.7	60.7	60.7	77	53.4	0	0	---	0.00	29.904 
00:05	60.7	60.7	60.7	77	53.4	0	0	---	0.00	29.904 
00:10	60.5	60.5	60.5	78	53.6	0	1	292	0.00	29.904 
00:15	60.5	60.5	60.5	78	53.6	0	2	292	0.00	29.900 
00:20	60.5	60.5	60.5	78	53.6	0	1	292	0.00	29.900 
00:25	60.7	60.7	60.7	77	53.4	0	1	292	0.00	29.900 
00:30	60.5	60.5	60.5	77	53.2	0	1	292	0.00	29.897 
00:35	60.5	60.5	60.5	77	53.2	0	0	---	0.00	29.897 
00:40	60.4	60.4	60.4	78	53.5	0	1	292	0.00	29.897 
00:45	60.2	60.2	60.2	78	53.3	0	0	---	0.00	29.897 
00:50	60.1	60.1	60.1	78	53.2	0	1	292	0.00	29.897 
00:55	59.9	59.9	59.9	78	53.0	0	1	292	0.00	29.897 
01:00	59.9	59.9	59.9	78	53.0	0	0	---	0.00	29.902 
01:05	59.6	59.6	59.6	78	52.7	0	1	292	0.00	29.902 
01:10	59.6	59.6	59.6	78	52.7	0	0	---	0.00	29.902 
01:15	59.5	59.5	59.5	78	52.6	0	0	---	0.00	29.903 
01:20	59.3	59.3	59.3	79	52.8	0	0	---	0.00	29.903 
01:25	59.2	59.2	59.2	79	52.7	0	1	292	0.00	29.903 
01:30	59.0	59.0	59.0	79	52.5	0	1	292	0.00	29.901 
01:35	59.0	59.0	59.0	78	52.1	0	3	292	0.00	29.901 
01:40	59.0	59.0	59.0	78	52.1	0	1	292	0.00	29.901 
01:45	59.0	59.0	59.0	78	52.1	0	1	292	0.00	29.903 
01:50	58.9	58.9	58.9	78	52.0	0	0	---	0.00	29.903 
01:55	58.9	58.9	58.9	78	52.0	0	1	292	0.00	29.903 
02:00	58.7	58.7	58.7	79	52.2	0	1	292	0.00	29.907 
02:05	58.6	58.6	58.6	79	52.1	0	2	292	0.00	29.907 
02:10	58.4	58.4	58.4	78	51.6	0	2	292	0.00	29.907 
02:15	58.4	58.4	58.4	78	51.6	0	1	292	0.00	29.913 
02:20	58.3	58.3	58.3	78	51.5	0	1	292	0.00	29.913 
02:25	58.3	58.3	58.3	78	51.5	0	1	292	0.00	29.913 
02:30	58.1	58.1	58.1	77	50.9	0	2	292	0.00	29.917 
02:35	58.0	58.0	58.0	78	51.2	0	1	292	0.00	29.917 
02:40	58.0	58.0	58.0	78	51.2	0	2	292	0.00	29.917 
02:45	57.6	57.6	57.6	79	51.1	0	1	292	0.00	29.919 
02:50	57.5	57.5	57.5	79	51.0	0	1	292	0.00	29.919 
02:55	57.5	57.5	57.5	80	51.4	0	1	292	0.00	29.919 
03:00	57.3	57.3	57.3	80	51.2	0	0	---	0.00	29.927 
03:05	57.2	57.2	57.2	81	51.4	0	1	292	0.00	29.927 
03:10	57.0	57.0	57.0	81	51.2	0	1	292	0.00	29.927 
03:15	56.9	56.9	56.9	81	51.1	0	1	292	0.00	29.929 
03:20	56.6	56.6	56.6	82	51.2	0	2	292	0.00	29.929 
03:25	56.6	56.6	56.6	83	51.5	0	1	292	0.00	29.929 
03:30	56.5	56.5	56.5	83	51.4	0	1	292	0.00	29.936 
03:35	56.2	56.2	56.2	84	51.4	0	1	292	0.00	29.936 
03:40	56.2	56.2	56.2	84	51.4	0	0	---	0.00	29.936 
03:45	56.0	56.0	56.0	84	51.2	0	1	292	0.00	29.938 
03:50	55.9	55.9	55.9	85	51.5	0	0	---	0.00	29.938 
03:55	55.7	55.7	55.7	85	51.3	0	0	---	0.00	29.938 
04:00	55.6	55.6	55.6	85	51.2	0	1	292	0.00	29.946 
04:05	55.6	55.6	55.6	86	51.5	0	0	---	0.00	29.946 
04:10	55.4	55.4	55.4	86	51.3	0	1	292	0.00	29.946 
04:15	55.4	55.4	55.4	86	51.3	0	1	292	0.00	29.954 
04:20	55.3	55.3	55.3	87	51.5	0	0	---	0.00	29.954 
04:25	55.3	55.3	55.3	87	51.5	0	1	292	0.00	29.954 
04:30	55.1	55.1	55.1	87	51.3	0	0	---	0.00	29.960 
04:35	55.0	55.0	55.0	87	51.2	0	0	---	0.00	29.960 
04:40	55.0	55.0	55.0	88	51.5	0	0	---	0.00	29.960 
04:45	54.8	54.8	54.8	88	51.3	0	1	292	0.00	29.965 
04:50	54.8	54.8	54.8	88	51.3	0	0	---	0.00	29.965 
04:55	54.7	54.7	54.7	88	51.2	0	0	---	0.00	29.965 
05:00	54.5	54.5	54.5	88	51.0	0	0	---	0.00	29.969 
05:05	54.5	54.5	54.5	89	51.3	0	0	---	0.00	29.969 
05:10	54.4	54.4	54.4	89	51.2	0	0	---	0.00	29.969 
05:15	54.2	54.2	54.2	89	51.0	0	0	---	0.00	29.970 
05:20	54.1	54.1	54.1	89	50.9	0	0	---	0.00	29.970 
05:25	54.1	54.1	54.1	90	51.2	0	0	---	0.00	29.970 
05:30	53.9	53.9	53.9	90	51.0	0	0	---	0.00	29.977 
05:35	53.9	53.9	53.9	90	51.0	0	0	---	0.00	29.977 
05:40	53.8	53.8	53.8	90	50.9	0	0	---	0.00	29.977 
05:45	53.6	53.6	53.6	91	51.0	0	0	---	0.00	29.985 
05:50	53.6	53.6	53.6	91	51.0	0	0	---	0.00	29.985 
05:55	53.5	53.5	53.5	91	50.9	0	0	---	0.00	29.985 
06:00	53.3	53.3	53.3	91	50.7	0	0	---	0.00	29.990 
06:05	53.3	53.3	53.3	91	50.7	0	0	---	0.00	29.990 
06:10	53.3	53.3	53.3	92	51.0	0	0	---	0.00	29.990 
06:15	53.2	53.2	53.2	92	50.9	0	0	---	0.00	30.005 
06:20	53.2	53.2	53.2	92	50.9	0	0	---	0.00	30.005 
06:25	53.2	53.2	53.2	92	50.9	0	0	---	0.00	30.005 
06:30	53.1	53.1	53.1	92	50.8	0	0	---	0.00	30.017 
06:35	53.2	53.2	53.2	92	50.9	0	0	---	0.00	30.017 
06:40	53.2	53.2	53.2	92	50.9	0	0	---	0.00	30.017 
06:45	53.2	53.2	53.2	93	51.2	0	0	---	0.00	30.018 
06:50	53.3	53.3	53.3	93	51.3	0	0	---	0.00	30.018 
06:55	53.5	53.5	53.5	93	51.5	0	0	---	0.00	30.018 
07:00	53.5	53.5	53.5	93	51.5	0	0	---	0.00	30.012 
07:05	53.6	53.6	53.6	93	51.6	0	0	---	0.00	30.012 
07:10	53.8	53.8	53.8	93	51.8	0	1	292	0.00	30.012 
07:15	54.1	54.1	54.1	93	52.1	0	1	292	0.00	30.026 
07:20	54.4	54.4	54.4	93	52.4	0	1	292	0.00	30.026 
07:25	54.7	54.7	54.7	93	52.7	0	1	292	0.00	30.026 
07:30	55.0	55.0	55.0	92	52.7	0	0	---	0.00	30.027 
07:35	55.3	55.3	55.3	92	53.0	0	1	292	0.00	30.027 
07:40	55.6	55.6	55.6	91	53.0	0	1	292	0.00	30.027 
07:45	55.7	55.7	55.7	90	52.8	0	1	292	0.00	30.030 
07:50	55.9	55.9	55.9	90	53.0	0	1	292	0.00	30.030 
07:55	56.5	56.5	56.5	89	53.3	0	1	292	0.00	30.030 
08:00	56.9	56.9	56.9	89	53.7	0	2	315	0.00	30.024 
08:05	57.0	57.0	57.0	87	53.2	0	1	315	0.00	30.024 
08:10	57.5	57.5	57.5	86	53.3	0	2	315	0.00	30.024 
08:15	58.4	58.4	58.4	84	53.6	0	1	315	0.00	30.018 
08:20	59.0	59.0	59.0	83	53.8	0	3	315	0.00	30.018 
08:25	59.5	59.5	59.5	81	53.7	0	1	135	0.00	30.018 
08:30	60.1	60.1	60.1	80	53.9	0	3	68	0.00	30.018 
08:35	60.4	60.4	60.4	79	53.9	0	1	68	0.00	30.018 
08:40	61.0	61.0	61.0	77	53.7	1	3	68	0.00	30.018 
08:45	61.0	61.0	61.0	77	53.7	0	2	112	0.00	30.023 
08:50	60.7	60.7	60.7	76	53.1	0	2	90	0.00	30.023 
08:55	61.2	61.2	61.2	77	53.9	0	2	135	0.00	30.023 
09:00	60.9	60.9	60.9	76	53.3	1	2	135	0.00	30.032 
09:05	61.3	61.3	61.3	75	53.3	0	4	135	0.00	30.032 
09:10	61.6	61.6	61.6	76	54.0	2	5	112	0.00	30.032 
09:15	61.6	61.6	61.6	74	53.2	1	4	90	0.00	30.043 
09:20	61.5	61.5	61.5	77	54.2	1	4	90	0.00	30.043 
09:25	61.3	61.3	61.3	75	53.3	2	6	112	0.00	30.043 
09:30	61.0	61.0	61.0	76	53.4	1	3	112	0.00	30.046 
09:35	61.5	61.5	61.5	77	54.2	0	1	112	0.00	30.046 
09:40	62.3	62.3	62.3	73	53.5	0	2	112	0.00	30.046 
09:45	62.0	62.0	62.0	73	53.2	0	0	---	0.00	30.045 
09:50	62.0	62.0	62.0	74	53.6	0	2	112	0.00	30.045 
09:55	62.3	62.3	62.3	73	53.5	0	1	112	0.00	30.045 
10:00	63.2	63.2	63.2	70	53.2	1	3	112	0.00	30.044 
10:05	63.7	63.7	63.7	65	51.7	1	4	112	0.00	30.044 
10:10	63.1	63.1	63.1	66	51.6	0	1	112	0.00	30.044 
10:15	62.9	62.9	62.9	68	52.2	0	1	112	0.00	30.049 
10:20	62.7	62.7	62.7	65	50.8	0	1	112	0.00	30.049 
10:25	63.4	63.4	63.4	66	51.8	0	2	112	0.00	30.049 
10:30	63.7	63.7	63.7	66	52.1	1	5	112	0.00	30.045 
10:35	64.2	64.2	64.2	65	52.2	0	3	112	0.00	30.045 
10:40	65.0	65.0	65.0	64	52.5	1	3	112	0.00	30.045 
10:45	65.8	65.8	65.8	62	52.4	1	3	90	0.00	30.050 
10:50	66.3	66.3	66.3	62	52.9	1	4	135	0.00	30.050 
10:55	66.3	66.3	66.3	59	51.5	1	4	135	0.00	30.050 
11:00	66.3	66.3	66.3	59	51.5	1	5	90	0.00	30.046 
11:05	66.4	66.4	66.4	63	53.4	0	2	112	0.00	30.046 
11:10	66.3	66.3	66.3	57	50.6	0	3	90	0.00	30.046 
11:15	66.3	66.3	66.3	61	52.4	0	2	90	0.00	30.048 
11:20	66.8	66.8	66.8	58	51.5	1	4	112	0.00	30.048 
11:25	67.1	67.1	67.1	59	52.3	1	4	112	0.00	30.048 
11:30	67.3	67.3	67.3	57	51.5	1	4	112	0.00	30.055 
11:35	67.4	67.4	67.4	58	52.1	1	3	112	0.00	30.055 
11:40	67.6	67.6	67.6	58	52.3	1	4	112	0.00	30.055 
11:45	67.3	67.3	67.3	58	52.0	0	3	135	0.00	30.058 
11:50	67.4	67.4	67.4	55	50.7	0	2	135	0.00	30.058 
11:55	67.9	67.9	67.9	61	53.9	1	5	135	0.00	30.058 
12:00	67.8	67.8	67.8	60	53.4	2	5	112	0.00	30.059 
12:05	68.1	68.1	68.1	56	51.8	1	5	90	0.00	30.059 
12:10	68.1	68.1	68.1	56	51.8	1	4	112	0.00	30.059 
12:15	67.6	67.6	67.6	58	52.3	1	3	22	0.00	30.055 
12:20	67.4	67.4	67.4	60	53.0	1	4	292	0.00	30.055 
12:25	67.6	67.6	67.6	57	51.8	1	4	292	0.00	30.055 
12:30	67.4	67.4	67.4	57	51.6	0	2	135	0.00	30.050 
12:35	67.8	67.8	67.8	56	51.5	1	5	90	0.00	30.050 
12:40	68.3	68.3	68.3	53	50.5	1	4	90	0.00	30.050 
12:45	68.3	68.3	68.3	54	51.0	1	4	112	0.00	30.060 
12:50	68.3	68.3	68.3	52	50.0	1	3	315	0.00	30.060 
12:55	68.6	68.6	68.6	56	52.3	0	2	315	0.00	30.060 
13:00	68.6	68.6	68.6	54	51.3	1	2	315	0.00	30.061 
13:05	68.8	68.8	68.8	53	51.0	0	1	315	0.00	30.061 
13:10	69.3	69.3	69.3	54	51.9	1	3	90	0.00	30.061 
13:15	69.4	69.4	69.4	51	50.5	0	3	90	0.00	30.064 
13:20	69.8	69.8	69.8	52	51.4	0	2	315	0.00	30.064 
13:25	69.8	69.8	69.8	56	53.4	0	3	90	0.00	30.064 
13:30	69.6	69.6	69.6	53	51.7	0	2	68	0.00	30.062 
13:35	69.6	69.6	69.6	50	50.1	0	3	270	0.00	30.062 
13:40	69.9	69.9	69.9	48	49.3	0	2	315	0.00	30.062 
13:45	70.1	70.1	70.1	50	50.6	1	6	112	0.00	30.062 
13:50	69.9	69.9	69.9	50	50.4	1	3	270	0.00	30.062 
13:55	70.1	70.1	70.1	50	50.6	0	2	270	0.00	30.062 
14:00	70.4	70.4	70.4	53	52.4	1	4	112	0.00	30.061 
14:05	70.9	70.9	70.9	52	52.4	1	3	112	0.00	30.061 
14:10	70.8	70.8	70.8	49	50.7	1	2	315	0.00	30.061 
14:15	70.8	70.8	70.8	47	49.6	1	2	315	0.00	30.059 
14:20	70.6	70.6	70.6	49	50.5	1	3	315	0.00	30.059 
14:25	70.4	70.4	70.4	50	50.9	0	1	315	0.00	30.059 
14:30	70.3	70.3	70.3	50	50.8	0	3	315	0.00	30.058 
14:35	70.6	70.6	70.6	45	48.2	1	2	338	0.00	30.058 
14:40	70.9	70.9	70.9	47	49.7	0	3	22	0.00	30.058 
14:45	71.1	71.1	71.1	43	47.5	0	2	0	0.00	30.061 
14:50	71.3	71.3	71.3	46	49.4	1	3	0	0.00	30.061 
14:55	71.5	71.5	71.5	44	48.4	1	3	338	0.00	30.061 
15:00	71.6	71.6	71.6	43	47.9	1	3	315	0.00	30.061 
15:05	71.8	71.8	71.8	44	48.7	1	4	292	0.00	30.061 
15:10	72.3	72.3	72.3	46	50.3	1	3	292	0.00	30.061 
15:15	72.5	72.5	72.5	42	48.1	1	3	292	0.00	30.060 
15:20	72.3	72.3	72.3	46	50.3	1	2	338	0.00	30.060 
15:25	72.1	72.1	72.1	42	47.7	1	3	270	0.00	30.060 
15:30	72.1	72.1	72.1	41	47.1	1	4	270	0.00	30.055 
15:35	72.3	72.3	72.3	43	48.5	1	4	292	0.00	30.055 
15:40	72.7	72.7	72.7	45	50.1	1	3	292	0.00	30.055 
15:45	72.3	72.3	72.3	41	47.3	0	2	292	0.00	30.061 
15:50	72.0	72.0	72.0	43	48.3	0	2	315	0.00	30.061 
15:55	72.0	72.0	72.0	43	48.3	1	3	315	0.00	30.061 
16:00	72.3	72.3	72.3	41	47.3	2	5	270	0.00	30.061 
16:05	72.5	72.5	72.5	40	46.8	0	2	270	0.00	30.061 
16:10	72.3	72.3	72.3	40	46.6	2	4	292	0.00	30.061 
16:15	72.3	72.3	72.3	41	47.3	1	3	315	0.00	30.065 
16:20	72.5	72.5	72.5	44	49.3	1	3	315	0.00	30.065 
16:25	72.5	72.5	72.5	41	47.4	1	3	315	0.00	30.065 
16:30	72.5	72.5	72.5	40	46.8	0	2	315	0.00	30.061 
16:35	72.8	72.8	72.8	41	47.7	1	4	112	0.00	30.061 
16:40	72.3	72.3	72.3	42	47.9	0	2	315	0.00	30.061 
16:45	72.3	72.3	72.3	40	46.6	0	2	315	0.00	30.063 
16:50	72.3	72.3	72.3	39	45.9	0	1	315	0.00	30.063 
16:55	72.0	72.0	72.0	40	46.3	0	1	315	0.00	30.063 
17:00	71.6	71.6	71.6	40	46.0	0	1	315	0.00	30.063 
17:05	72.3	72.3	72.3	44	49.2	0	2	315	0.00	30.063 
17:10	73.0	73.0	73.0	41	47.9	0	2	315	0.00	30.063 
17:15	73.3	73.3	73.3	40	47.5	0	3	315	0.00	30.058 
17:20	73.2	73.2	73.2	38	46.1	1	3	338	0.00	30.058 
17:25	73.3	73.3	73.3	39	46.8	0	2	22	0.00	30.058 
17:30	73.2	73.2	73.2	40	47.4	1	7	45	0.00	30.062 
17:35	73.2	73.2	73.2	38	46.1	0	2	22	0.00	30.062 
17:40	73.2	73.2	73.2	39	46.7	0	3	315	0.00	30.062 
17:45	72.8	72.8	72.8	39	46.4	0	2	315	0.00	30.064 
17:50	72.7	72.7	72.7	38	45.6	1	5	315	0.00	30.064 
17:55	72.7	72.7	72.7	37	44.9	1	3	315	0.00	30.064 
18:00	72.5	72.5	72.5	41	47.4	0	1	315	0.00	30.066 
18:05	72.3	72.3	72.3	39	45.9	1	2	315	0.00	30.066 
18:10	72.3	72.3	72.3	39	45.9	1	3	315	0.00	30.066 
18:15	72.1	72.1	72.1	39	45.8	0	3	315	0.00	30.064 
18:20	71.6	71.6	71.6	38	44.6	1	4	315	0.00	30.064 
18:25	71.1	71.1	71.1	41	46.2	0	2	315	0.00	30.064 
18:30	70.9	70.9	70.9	40	45.4	0	2	22	0.00	30.064 
18:35	70.8	70.8	70.8	40	45.3	0	1	22	0.00	30.064 
18:40	70.6	70.6	70.6	39	44.4	1	2	22	0.00	30.064 
18:45	70.9	70.9	70.9	39	44.7	1	2	338	0.00	30.065 
18:50	70.9	70.9	70.9	39	44.7	0	2	270	0.00	30.065 
18:55	70.9	70.9	70.9	42	46.6	0	2	270	0.00	30.065 
19:00	70.9	70.9	70.9	43	47.3	0	2	270	0.00	30.064 
19:05	70.9	70.9	70.9	42	46.6	0	2	292	0.00	30.064 
19:10	70.8	70.8	70.8	42	46.6	1	2	292	0.00	30.064 
19:15	70.6	70.6	70.6	43	47.0	0	2	292	0.00	30.061 
19:20	70.6	70.6	70.6	43	47.0	0	1	292	0.00	30.061 
19:25	70.4	70.4	70.4	42	46.2	0	2	292	0.00	30.061 
19:30	70.3	70.3	70.3	43	46.7	0	1	292	0.00	30.062 
19:35	70.1	70.1	70.1	44	47.2	0	2	292	0.00	30.062 
19:40	69.9	69.9	69.9	45	47.6	0	1	292	0.00	30.062 
19:45	69.8	69.8	69.8	45	47.5	0	1	292	0.00	30.060 
19:50	69.6	69.6	69.6	46	47.9	0	2	292	0.00	30.060 
19:55	69.4	69.4	69.4	46	47.7	0	1	292	0.00	30.060 
20:00	69.3	69.3	69.3	46	47.6	0	1	292	0.00	30.053 
20:05	69.1	69.1	69.1	47	48.0	0	0	---	0.00	30.053 
20:10	69.1	69.1	69.1	46	47.4	0	3	292	0.00	30.053 
20:15	68.9	68.9	68.9	45	46.7	0	2	292	0.00	30.055 
20:20	68.9	68.9	68.9	47	47.8	0	0	---	0.00	30.055 
20:25	68.8	68.8	68.8	48	48.3	0	0	---	0.00	30.055 
20:30	68.4	68.4	68.4	49	48.5	0	0	---	0.00	30.059 
20:35	68.1	68.1	68.1	49	48.2	0	0	---	0.00	30.059 
20:40	67.9	67.9	67.9	50	48.6	0	0	---	0.00	30.059 
20:45	67.6	67.6	67.6	52	49.3	0	0	---	0.00	30.058 
20:50	67.4	67.4	67.4	51	48.6	0	1	292	0.00	30.058 
20:55	67.1	67.1	67.1	52	48.9	0	0	---	0.00	30.058 
21:00	66.8	66.8	66.8	52	48.6	0	0	---	0.00	30.057 
21:05	66.4	66.4	66.4	52	48.2	0	0	---	0.00	30.057 
21:10	66.1	66.1	66.1	53	48.5	0	0	---	0.00	30.057 
21:15	65.8	65.8	65.8	54	48.7	0	0	---	0.00	30.059 
21:20	65.3	65.3	65.3	55	48.7	0	0	---	0.00	30.059 
21:25	65.0	65.0	65.0	56	48.9	0	0	---	0.00	30.059 
21:30	64.5	64.5	64.5	57	48.9	0	0	---	0.00	30.059 
21:35	64.2	64.2	64.2	58	49.1	0	0	---	0.00	30.059 
21:40	63.7	63.7	63.7	59	49.1	0	0	---	0.00	30.059 
21:45	63.4	63.4	63.4	60	49.3	0	0	---	0.00	30.062 
21:50	63.1	63.1	63.1	62	49.9	0	0	---	0.00	30.062 
21:55	62.6	62.6	62.6	63	49.8	0	0	---	0.00	30.062 
22:00	62.1	62.1	62.1	64	49.8	0	0	---	0.00	30.064 
22:05	61.8	61.8	61.8	65	49.9	0	0	---	0.00	30.064 
22:10	61.5	61.5	61.5	66	50.0	0	0	---	0.00	30.064 
22:15	61.3	61.3	61.3	66	49.8	0	0	---	0.00	30.064 
22:20	61.0	61.0	61.0	67	50.0	0	0	---	0.00	30.064 
22:25	60.7	60.7	60.7	68	50.1	0	0	---	0.00	30.064 
22:30	60.5	60.5	60.5	69	50.3	0	0	---	0.00	30.071 
22:35	60.2	60.2	60.2	70	50.4	0	0	---	0.00	30.071 
22:40	60.1	60.1	60.1	70	50.3	0	0	---	0.00	30.071 
22:45	59.8	59.8	59.8	71	50.4	0	0	---	0.00	30.076 
22:50	59.6	59.6	59.6	72	50.6	0	0	---	0.00	30.076 
22:55	59.3	59.3	59.3	72	50.3	0	0	---	0.00	30.076 
23:00	59.2	59.2	59.2	73	50.5	0	0	---	0.00	30.078 
23:05	59.0	59.0	59.0	74	50.7	0	0	---	0.00	30.078 
23:10	58.9	58.9	58.9	75	51.0	0	0	---	0.00	30.078 
23:15	58.7	58.7	58.7	76	51.2	0	0	---	0.00	30.080 
23:20	58.6	58.6	58.6	77	51.4	0	0	---	0.00	30.080 
23:25	58.4	58.4	58.4	77	51.2	0	0	---	0.00	30.080 
23:30	58.3	58.3	58.3	78	51.5	0	0	---	0.00	30.082 
23:35	58.3	58.3	58.3	79	51.8	0	0	---	0.00	30.082 
23:40	58.0	58.0	58.0	79	51.5	0	0	---	0.00	30.082 
23:45	57.8	57.8	57.8	79	51.3	0	0	---	0.00	30.081 
23:50	57.6	57.6	57.6	78	50.8	0	0	---	0.00	30.081 
23:55	57.5	57.5	57.5	78	50.7	0	0	---	0.00	30.081 

CoCoRaHS
IN-AL-39
A2 Web Hosting
Creative Commons License
GoDaddy
search engine by freefind advanced

loaded 2018-11-20 09:06:25 • last modified 2010-11-18 10:43:29
Privacy PolicyDisclaimer
• wx.awcolley.com is powered by PmWiki v.2002016 •
• all content (unless otherwise noted) © 2018 A W Colley